<?xml version='1.0' encoding='UTF-8'?><gpx version="1.1" creator="JPX - https://github.com/jenetics/jpx" xmlns="http://www.topografix.com/GPX/1/1"><trk><trkseg><trkpt lat="45.7957" lon="9.14844"><ele>405.0</ele><time>2026-05-01T17:49:05.283Z</time></trkpt><trkpt lat="45.7956417" lon="9.1484"><ele>405.0</ele><time>2026-05-01T17:49:07.283Z</time></trkpt><trkpt lat="45.7955767" lon="9.148325"><ele>405.0</ele><time>2026-05-01T17:49:09.283Z</time></trkpt><trkpt lat="45.7954917" lon="9.1482933"><ele>405.0</ele><time>2026-05-01T17:49:11.283Z</time></trkpt><trkpt lat="45.7953933" lon="9.1482783"><ele>405.0</ele><time>2026-05-01T17:49:13.283Z</time></trkpt><trkpt lat="45.7953" lon="9.1482517"><ele>405.0</ele><time>2026-05-01T17:49:15.282Z</time></trkpt><trkpt lat="45.7952067" lon="9.1482317"><ele>405.3333333333333</ele><time>2026-05-01T17:49:17.283Z</time></trkpt><trkpt lat="45.7950917" lon="9.1482033"><ele>405.66666666666663</ele><time>2026-05-01T17:49:19.283Z</time></trkpt><trkpt lat="45.795025" lon="9.1481967"><ele>406.0</ele><time>2026-05-01T17:49:20.282Z</time></trkpt><trkpt lat="45.7949617" lon="9.1481883"><ele>406.3333333333333</ele><time>2026-05-01T17:49:21.282Z</time></trkpt><trkpt lat="45.794865" lon="9.1481583"><ele>406.66666666666663</ele><time>2026-05-01T17:49:23.283Z</time></trkpt><trkpt lat="45.7947933" lon="9.1480783"><ele>407.0</ele><time>2026-05-01T17:49:25.283Z</time></trkpt><trkpt lat="45.7947417" lon="9.147995"><ele>406.99999999999994</ele><time>2026-05-01T17:49:27.283Z</time></trkpt><trkpt lat="45.7947" lon="9.1479233"><ele>407.0</ele><time>2026-05-01T17:49:29.283Z</time></trkpt><trkpt lat="45.79468" lon="9.147805"><ele>407.0</ele><time>2026-05-01T17:49:31.283Z</time></trkpt><trkpt lat="45.7946933" lon="9.14768"><ele>407.0</ele><time>2026-05-01T17:49:33.283Z</time></trkpt><trkpt lat="45.7947" lon="9.1475433"><ele>406.99999999999994</ele><time>2026-05-01T17:49:35.283Z</time></trkpt><trkpt lat="45.7947033" lon="9.1473933"><ele>407.0</ele><time>2026-05-01T17:49:37.283Z</time></trkpt><trkpt lat="45.794705" lon="9.1472483"><ele>406.8</ele><time>2026-05-01T17:49:39.283Z</time></trkpt><trkpt lat="45.7947133" lon="9.1471117"><ele>406.6</ele><time>2026-05-01T17:49:41.282Z</time></trkpt><trkpt lat="45.7947267" lon="9.146975"><ele>406.40000000000003</ele><time>2026-05-01T17:49:43.283Z</time></trkpt><trkpt lat="45.7947367" lon="9.14683"><ele>406.20000000000005</ele><time>2026-05-01T17:49:45.283Z</time></trkpt><trkpt lat="45.7947567" lon="9.146705"><ele>406.0</ele><time>2026-05-01T17:49:47.283Z</time></trkpt><trkpt lat="45.794775" lon="9.1465867"><ele>406.00000000000006</ele><time>2026-05-01T17:49:49.282Z</time></trkpt><trkpt lat="45.79471" lon="9.1465267"><ele>406.0</ele><time>2026-05-01T17:49:52.283Z</time></trkpt><trkpt lat="45.7946317" lon="9.146555"><ele>406.0</ele><time>2026-05-01T17:49:54.283Z</time></trkpt><trkpt lat="45.7945617" lon="9.146525"><ele>406.0</ele><time>2026-05-01T17:49:57.283Z</time></trkpt><trkpt lat="45.7944783" lon="9.1465083"><ele>406.00000000000006</ele><time>2026-05-01T17:49:59.283Z</time></trkpt><trkpt lat="45.7944083" lon="9.14649"><ele>406.0</ele><time>2026-05-01T17:50:01.283Z</time></trkpt><trkpt lat="45.7943333" lon="9.146505"><ele>406.50000000000006</ele><time>2026-05-01T17:50:03.283Z</time></trkpt><trkpt lat="45.7942533" lon="9.1465033"><ele>407.0</ele><time>2026-05-01T17:50:05.283Z</time></trkpt><trkpt lat="45.794165" lon="9.1464733"><ele>407.5</ele><time>2026-05-01T17:50:07.282Z</time></trkpt><trkpt lat="45.79408" lon="9.1464333"><ele>408.0</ele><time>2026-05-01T17:50:09.283Z</time></trkpt><trkpt lat="45.794" lon="9.1463833"><ele>408.50000000000006</ele><time>2026-05-01T17:50:11.283Z</time></trkpt><trkpt lat="45.7939167" lon="9.1463383"><ele>409.0</ele><time>2026-05-01T17:50:13.283Z</time></trkpt><trkpt lat="45.793835" lon="9.146295"><ele>409.00000000000006</ele><time>2026-05-01T17:50:15.283Z</time></trkpt><trkpt lat="45.7937533" lon="9.1462567"><ele>409.0</ele><time>2026-05-01T17:50:17.283Z</time></trkpt><trkpt lat="45.7936633" lon="9.146225"><ele>409.0</ele><time>2026-05-01T17:50:19.283Z</time></trkpt><trkpt lat="45.79358" lon="9.1461833"><ele>409.0</ele><time>2026-05-01T17:50:21.283Z</time></trkpt><trkpt lat="45.7934967" lon="9.146135"><ele>409.00000000000006</ele><time>2026-05-01T17:50:23.283Z</time></trkpt><trkpt lat="45.793425" lon="9.1460817"><ele>409.0</ele><time>2026-05-01T17:50:25.283Z</time></trkpt><trkpt lat="45.7933333" lon="9.1460333"><ele>410.4</ele><time>2026-05-01T17:50:27.283Z</time></trkpt><trkpt lat="45.7932517" lon="9.14596"><ele>411.79999999999995</ele><time>2026-05-01T17:50:29.283Z</time></trkpt><trkpt lat="45.7931724" lon="9.1458699"><ele>413.20000000000005</ele><time>2026-05-01T17:50:31.283Z</time></trkpt><trkpt lat="45.7931001" lon="9.1457657"><ele>414.6</ele><time>2026-05-01T17:50:33.283Z</time></trkpt><trkpt lat="45.7930349" lon="9.1456751"><ele>416.0</ele><time>2026-05-01T17:50:35.283Z</time></trkpt><trkpt lat="45.7929688" lon="9.1455631"><ele>416.20000000000005</ele><time>2026-05-01T17:50:37.283Z</time></trkpt><trkpt lat="45.7929162" lon="9.14542"><ele>416.40000000000003</ele><time>2026-05-01T17:50:39.283Z</time></trkpt><trkpt lat="45.7928795" lon="9.1452966"><ele>416.6</ele><time>2026-05-01T17:50:41.283Z</time></trkpt><trkpt lat="45.792854" lon="9.145172"><ele>416.8</ele><time>2026-05-01T17:50:43.283Z</time></trkpt><trkpt lat="45.7928307" lon="9.1450463"><ele>417.0</ele><time>2026-05-01T17:50:45.283Z</time></trkpt><trkpt lat="45.7928145" lon="9.1448944"><ele>416.6666666666667</ele><time>2026-05-01T17:50:47.283Z</time></trkpt><trkpt lat="45.7927996" lon="9.1447648"><ele>416.33333333333337</ele><time>2026-05-01T17:50:49.283Z</time></trkpt><trkpt lat="45.7927896" lon="9.144664"><ele>416.0</ele><time>2026-05-01T17:50:51.283Z</time></trkpt><trkpt lat="45.792779" lon="9.1445747"><ele>415.6666666666667</ele><time>2026-05-01T17:50:53.283Z</time></trkpt><trkpt lat="45.7927631" lon="9.1444749"><ele>415.33333333333337</ele><time>2026-05-01T17:50:55.283Z</time></trkpt><trkpt lat="45.7927384" lon="9.1443514"><ele>415.0</ele><time>2026-05-01T17:50:58.283Z</time></trkpt><trkpt lat="45.7927146" lon="9.1442447"><ele>415.0</ele><time>2026-05-01T17:51:01.283Z</time></trkpt><trkpt lat="45.7927056" lon="9.1441537"><ele>415.0</ele><time>2026-05-01T17:51:03.283Z</time></trkpt><trkpt lat="45.7926769" lon="9.1440459"><ele>415.0</ele><time>2026-05-01T17:51:05.283Z</time></trkpt><trkpt lat="45.7926567" lon="9.1439383"><ele>415.0</ele><time>2026-05-01T17:51:07.282Z</time></trkpt><trkpt lat="45.79264" lon="9.1438283"><ele>415.0</ele><time>2026-05-01T17:51:09.282Z</time></trkpt><trkpt lat="45.79261" lon="9.1437483"><ele>415.0</ele><time>2026-05-01T17:51:11.283Z</time></trkpt><trkpt lat="45.7925467" lon="9.143725"><ele>415.0</ele><time>2026-05-01T17:51:14.283Z</time></trkpt><trkpt lat="45.79249" lon="9.1438183"><ele>418.0</ele><time>2026-05-01T17:51:17.283Z</time></trkpt><trkpt lat="45.7924833" lon="9.1439183"><ele>421.0</ele><time>2026-05-01T17:51:19.283Z</time></trkpt><trkpt lat="45.7924867" lon="9.144015"><ele>424.0</ele><time>2026-05-01T17:51:21.283Z</time></trkpt><trkpt lat="45.7924767" lon="9.1441117"><ele>427.0</ele><time>2026-05-01T17:51:23.283Z</time></trkpt><trkpt lat="45.792445" lon="9.1441967"><ele>430.0</ele><time>2026-05-01T17:51:25.282Z</time></trkpt><trkpt lat="45.79238" lon="9.1442567"><ele>433.0</ele><time>2026-05-01T17:51:27.283Z</time></trkpt><trkpt lat="45.7923083" lon="9.1442917"><ele>436.0</ele><time>2026-05-01T17:51:29.283Z</time></trkpt><trkpt lat="45.792235" lon="9.144305"><ele>436.0</ele><time>2026-05-01T17:51:31.282Z</time></trkpt><trkpt lat="45.7921633" lon="9.14432"><ele>436.0</ele><time>2026-05-01T17:51:33.283Z</time></trkpt><trkpt lat="45.79209" lon="9.1443233"><ele>436.0</ele><time>2026-05-01T17:51:35.283Z</time></trkpt><trkpt lat="45.7920183" lon="9.14433"><ele>436.0</ele><time>2026-05-01T17:51:37.283Z</time></trkpt><trkpt lat="45.7919533" lon="9.144325"><ele>436.0</ele><time>2026-05-01T17:51:39.283Z</time></trkpt><trkpt lat="45.7918817" lon="9.1443283"><ele>436.0</ele><time>2026-05-01T17:51:41.283Z</time></trkpt><trkpt lat="45.7918" lon="9.1443383"><ele>436.0</ele><time>2026-05-01T17:51:43.282Z</time></trkpt><trkpt lat="45.79171" lon="9.1443367"><ele>435.8</ele><time>2026-05-01T17:51:45.283Z</time></trkpt><trkpt lat="45.7915933" lon="9.1443267"><ele>435.6</ele><time>2026-05-01T17:51:47.283Z</time></trkpt><trkpt lat="45.79153" lon="9.14433"><ele>435.4</ele><time>2026-05-01T17:51:48.283Z</time></trkpt><trkpt lat="45.7914" lon="9.1443683"><ele>435.2</ele><time>2026-05-01T17:51:50.283Z</time></trkpt><trkpt lat="45.7913333" lon="9.1443783"><ele>435.0</ele><time>2026-05-01T17:51:51.282Z</time></trkpt><trkpt lat="45.79122" lon="9.1443883"><ele>435.0</ele><time>2026-05-01T17:51:53.283Z</time></trkpt><trkpt lat="45.7911233" lon="9.1443967"><ele>435.0</ele><time>2026-05-01T17:51:55.283Z</time></trkpt><trkpt lat="45.79103" lon="9.144405"><ele>435.0</ele><time>2026-05-01T17:51:57.282Z</time></trkpt><trkpt lat="45.7909417" lon="9.1444017"><ele>435.0</ele><time>2026-05-01T17:51:59.283Z</time></trkpt><trkpt lat="45.790855" lon="9.1444217"><ele>435.0</ele><time>2026-05-01T17:52:01.282Z</time></trkpt><trkpt lat="45.7907717" lon="9.1444917"><ele>435.2</ele><time>2026-05-01T17:52:03.283Z</time></trkpt><trkpt lat="45.7907167" lon="9.1446167"><ele>435.4</ele><time>2026-05-01T17:52:05.283Z</time></trkpt><trkpt lat="45.7906367" lon="9.1446983"><ele>435.6</ele><time>2026-05-01T17:52:07.283Z</time></trkpt><trkpt lat="45.79054" lon="9.1446783"><ele>435.8</ele><time>2026-05-01T17:52:09.283Z</time></trkpt><trkpt lat="45.790435" lon="9.1446383"><ele>436.0</ele><time>2026-05-01T17:52:11.283Z</time></trkpt><trkpt lat="45.7903667" lon="9.144635"><ele>436.0</ele><time>2026-05-01T17:52:12.283Z</time></trkpt><trkpt lat="45.7902883" lon="9.1445583"><ele>436.0</ele><time>2026-05-01T17:52:14.283Z</time></trkpt><trkpt lat="45.7902867" lon="9.14442"><ele>436.0</ele><time>2026-05-01T17:52:16.283Z</time></trkpt><trkpt lat="45.7902983" lon="9.1442717"><ele>436.0</ele><time>2026-05-01T17:52:18.283Z</time></trkpt><trkpt lat="45.7902967" lon="9.1441317"><ele>436.0</ele><time>2026-05-01T17:52:20.282Z</time></trkpt><trkpt lat="45.7903083" lon="9.1440017"><ele>436.0</ele><time>2026-05-01T17:52:22.283Z</time></trkpt><trkpt lat="45.7903117" lon="9.1438983"><ele>436.0</ele><time>2026-05-01T17:52:24.283Z</time></trkpt><trkpt lat="45.790305" lon="9.1437933"><ele>436.0</ele><time>2026-05-01T17:52:26.283Z</time></trkpt><trkpt lat="45.7903067" lon="9.1436917"><ele>436.0</ele><time>2026-05-01T17:52:28.283Z</time></trkpt><trkpt lat="45.790305" lon="9.1435867"><ele>436.0</ele><time>2026-05-01T17:52:30.283Z</time></trkpt><trkpt lat="45.7903" lon="9.14348"><ele>436.0</ele><time>2026-05-01T17:52:32.283Z</time></trkpt><trkpt lat="45.790295" lon="9.1433717"><ele>436.0</ele><time>2026-05-01T17:52:34.283Z</time></trkpt><trkpt lat="45.7902933" lon="9.1432433"><ele>436.8</ele><time>2026-05-01T17:52:36.283Z</time></trkpt><trkpt lat="45.7903017" lon="9.1430983"><ele>437.6</ele><time>2026-05-01T17:52:38.283Z</time></trkpt><trkpt lat="45.79031" lon="9.14295"><ele>438.4</ele><time>2026-05-01T17:52:40.282Z</time></trkpt><trkpt lat="45.7903233" lon="9.1428033"><ele>439.2</ele><time>2026-05-01T17:52:42.283Z</time></trkpt><trkpt lat="45.79034" lon="9.1426383"><ele>440.0</ele><time>2026-05-01T17:52:44.283Z</time></trkpt><trkpt lat="45.790365" lon="9.142485"><ele>441.0</ele><time>2026-05-01T17:52:46.283Z</time></trkpt><trkpt lat="45.790395" lon="9.1423617"><ele>442.0</ele><time>2026-05-01T17:52:48.283Z</time></trkpt><trkpt lat="45.79042" lon="9.142255"><ele>443.0</ele><time>2026-05-01T17:52:50.283Z</time></trkpt><trkpt lat="45.7904433" lon="9.1421"><ele>444.0</ele><time>2026-05-01T17:52:52.283Z</time></trkpt><trkpt lat="45.790465" lon="9.1419833"><ele>445.0</ele><time>2026-05-01T17:52:54.283Z</time></trkpt><trkpt lat="45.7904767" lon="9.14185"><ele>445.00000000000006</ele><time>2026-05-01T17:52:56.282Z</time></trkpt><trkpt lat="45.790505" lon="9.141755"><ele>445.0</ele><time>2026-05-01T17:52:58.283Z</time></trkpt><trkpt lat="45.7905317" lon="9.1416367"><ele>445.0</ele><time>2026-05-01T17:53:01.283Z</time></trkpt><trkpt lat="45.7905667" lon="9.1415167"><ele>445.0</ele><time>2026-05-01T17:53:04.283Z</time></trkpt><trkpt lat="45.790585" lon="9.14143"><ele>445.00000000000006</ele><time>2026-05-01T17:53:06.283Z</time></trkpt><trkpt lat="45.7905983" lon="9.141325"><ele>445.0</ele><time>2026-05-01T17:53:08.283Z</time></trkpt><trkpt lat="45.79063" lon="9.1412333"><ele>446.50000000000006</ele><time>2026-05-01T17:53:10.283Z</time></trkpt><trkpt lat="45.7906683" lon="9.1411483"><ele>448.0</ele><time>2026-05-01T17:53:12.283Z</time></trkpt><trkpt lat="45.7906883" lon="9.1410467"><ele>449.5</ele><time>2026-05-01T17:53:14.283Z</time></trkpt><trkpt lat="45.790695" lon="9.1409467"><ele>451.0</ele><time>2026-05-01T17:53:16.283Z</time></trkpt><trkpt lat="45.7907033" lon="9.1408333"><ele>452.50000000000006</ele><time>2026-05-01T17:53:19.283Z</time></trkpt><trkpt lat="45.7907067" lon="9.1407183"><ele>454.0</ele><time>2026-05-01T17:53:22.282Z</time></trkpt><trkpt lat="45.7907283" lon="9.1406033"><ele>455.50000000000006</ele><time>2026-05-01T17:53:25.283Z</time></trkpt><trkpt lat="45.7907417" lon="9.1404983"><ele>457.0</ele><time>2026-05-01T17:53:28.283Z</time></trkpt><trkpt lat="45.79075" lon="9.1404067"><ele>458.5</ele><time>2026-05-01T17:53:30.283Z</time></trkpt><trkpt lat="45.7907467" lon="9.14029"><ele>460.0</ele><time>2026-05-01T17:53:33.283Z</time></trkpt><trkpt lat="45.790755" lon="9.14018"><ele>461.50000000000006</ele><time>2026-05-01T17:53:36.283Z</time></trkpt><trkpt lat="45.7907533" lon="9.140065"><ele>463.0</ele><time>2026-05-01T17:53:40.283Z</time></trkpt><trkpt lat="45.790755" lon="9.1399583"><ele>462.71428571428567</ele><time>2026-05-01T17:53:43.282Z</time></trkpt><trkpt lat="45.790725" lon="9.13987"><ele>462.4285714285714</ele><time>2026-05-01T17:53:46.283Z</time></trkpt><trkpt lat="45.7907333" lon="9.1397783"><ele>462.1428571428571</ele><time>2026-05-01T17:53:49.282Z</time></trkpt><trkpt lat="45.7907383" lon="9.1396867"><ele>461.8571428571429</ele><time>2026-05-01T17:53:51.283Z</time></trkpt><trkpt lat="45.79074" lon="9.1395817"><ele>461.5714285714286</ele><time>2026-05-01T17:53:54.283Z</time></trkpt><trkpt lat="45.79072" lon="9.139485"><ele>461.28571428571433</ele><time>2026-05-01T17:53:58.283Z</time></trkpt><trkpt lat="45.7906667" lon="9.1394333"><ele>461.0</ele><time>2026-05-01T17:54:02.282Z</time></trkpt><trkpt lat="45.7906017" lon="9.1393783"><ele>461.0</ele><time>2026-05-01T17:54:07.283Z</time></trkpt><trkpt lat="45.7905333" lon="9.13932"><ele>461.00000000000006</ele><time>2026-05-01T17:54:11.283Z</time></trkpt><trkpt lat="45.79047" lon="9.139295"><ele>461.0</ele><time>2026-05-01T17:54:15.283Z</time></trkpt><trkpt lat="45.7904417" lon="9.1393817"><ele>461.0</ele><time>2026-05-01T17:54:20.283Z</time></trkpt><trkpt lat="45.7904083" lon="9.13948"><ele>461.00000000000006</ele><time>2026-05-01T17:55:30.282Z</time></trkpt><trkpt lat="45.79037" lon="9.1395533"><ele>461.0</ele><time>2026-05-01T17:55:33.281Z</time></trkpt><trkpt lat="45.7903383" lon="9.1396517"><ele>461.0</ele><time>2026-05-01T17:55:37.282Z</time></trkpt><trkpt lat="45.7903083" lon="9.1397433"><ele>460.99999999999994</ele><time>2026-05-01T17:55:41.282Z</time></trkpt><trkpt lat="45.79029" lon="9.13984"><ele>461.0</ele><time>2026-05-01T17:55:45.282Z</time></trkpt><trkpt lat="45.7902667" lon="9.1399383"><ele>461.0</ele><time>2026-05-01T17:55:51.282Z</time></trkpt><trkpt lat="45.79021" lon="9.1400683"><ele>461.0</ele><time>2026-05-01T17:56:12.282Z</time></trkpt><trkpt lat="45.790175" lon="9.14015"><ele>460.99999999999994</ele><time>2026-05-01T17:56:16.282Z</time></trkpt><trkpt lat="45.7901217" lon="9.1401983"><ele>461.0</ele><time>2026-05-01T17:56:18.281Z</time></trkpt><trkpt lat="45.79006" lon="9.14026"><ele>463.99999999999994</ele><time>2026-05-01T17:56:20.282Z</time></trkpt><trkpt lat="45.7900067" lon="9.1403167"><ele>467.0</ele><time>2026-05-01T17:56:22.282Z</time></trkpt><trkpt lat="45.78993" lon="9.1403567"><ele>470.0</ele><time>2026-05-01T17:56:25.281Z</time></trkpt><trkpt lat="45.789855" lon="9.1403933"><ele>473.0</ele><time>2026-05-01T17:56:28.282Z</time></trkpt><trkpt lat="45.78977" lon="9.1403883"><ele>475.99999999999994</ele><time>2026-05-01T17:56:31.282Z</time></trkpt><trkpt lat="45.7896783" lon="9.140385"><ele>479.0</ele><time>2026-05-01T17:56:34.282Z</time></trkpt><trkpt lat="45.78958" lon="9.14043"><ele>478.99999999999994</ele><time>2026-05-01T17:56:37.281Z</time></trkpt><trkpt lat="45.7895167" lon="9.1404633"><ele>479.0</ele><time>2026-05-01T17:56:39.282Z</time></trkpt><trkpt lat="45.7894333" lon="9.1405"><ele>479.0</ele><time>2026-05-01T17:56:41.281Z</time></trkpt><trkpt lat="45.7893533" lon="9.1405467"><ele>479.0</ele><time>2026-05-01T17:56:43.282Z</time></trkpt><trkpt lat="45.7892833" lon="9.140595"><ele>478.99999999999994</ele><time>2026-05-01T17:56:45.282Z</time></trkpt><trkpt lat="45.7892217" lon="9.140645"><ele>479.0</ele><time>2026-05-01T17:56:47.282Z</time></trkpt><trkpt lat="45.7891517" lon="9.1407267"><ele>480.4</ele><time>2026-05-01T17:56:49.282Z</time></trkpt><trkpt lat="45.789085" lon="9.1408"><ele>481.79999999999995</ele><time>2026-05-01T17:56:51.282Z</time></trkpt><trkpt lat="45.7890167" lon="9.1408783"><ele>483.20000000000005</ele><time>2026-05-01T17:56:53.282Z</time></trkpt><trkpt lat="45.788955" lon="9.14096"><ele>484.6</ele><time>2026-05-01T17:56:55.282Z</time></trkpt><trkpt lat="45.788895" lon="9.14106"><ele>486.0</ele><time>2026-05-01T17:56:57.282Z</time></trkpt><trkpt lat="45.7888167" lon="9.14117"><ele>486.0</ele><time>2026-05-01T17:56:59.282Z</time></trkpt><trkpt lat="45.78873" lon="9.1412783"><ele>486.0</ele><time>2026-05-01T17:57:01.282Z</time></trkpt><trkpt lat="45.788685" lon="9.141345"><ele>486.0</ele><time>2026-05-01T17:57:02.281Z</time></trkpt><trkpt lat="45.7886383" lon="9.1414117"><ele>486.0</ele><time>2026-05-01T17:57:03.282Z</time></trkpt><trkpt lat="45.788595" lon="9.1414833"><ele>486.0</ele><time>2026-05-01T17:57:04.282Z</time></trkpt><trkpt lat="45.78854" lon="9.141585"><ele>486.0</ele><time>2026-05-01T17:57:05.282Z</time></trkpt><trkpt lat="45.788495" lon="9.141675"><ele>483.0</ele><time>2026-05-01T17:57:06.282Z</time></trkpt><trkpt lat="45.7884517" lon="9.1417417"><ele>480.0</ele><time>2026-05-01T17:57:07.282Z</time></trkpt><trkpt lat="45.7884117" lon="9.1418117"><ele>477.0</ele><time>2026-05-01T17:57:08.281Z</time></trkpt><trkpt lat="45.7883517" lon="9.1419283"><ele>474.0</ele><time>2026-05-01T17:57:10.282Z</time></trkpt><trkpt lat="45.7883283" lon="9.1420233"><ele>471.0</ele><time>2026-05-01T17:57:20.282Z</time></trkpt><trkpt lat="45.788205" lon="9.1420717"><ele>468.0</ele><time>2026-05-01T17:57:39.282Z</time></trkpt><trkpt lat="45.78814" lon="9.1421633"><ele>468.0</ele><time>2026-05-01T17:57:42.282Z</time></trkpt><trkpt lat="45.7881033" lon="9.14226"><ele>468.00000000000006</ele><time>2026-05-01T17:57:45.282Z</time></trkpt><trkpt lat="45.7880533" lon="9.1423183"><ele>468.0</ele><time>2026-05-01T17:57:48.282Z</time></trkpt><trkpt lat="45.7880117" lon="9.1422433"><ele>468.0</ele><time>2026-05-01T17:57:52.282Z</time></trkpt><trkpt lat="45.787985" lon="9.142335"><ele>468.00000000000006</ele><time>2026-05-01T17:58:10.282Z</time></trkpt><trkpt lat="45.7879717" lon="9.142435"><ele>468.0</ele><time>2026-05-01T17:58:14.281Z</time></trkpt><trkpt lat="45.7879333" lon="9.1425167"><ele>468.0</ele><time>2026-05-01T17:58:18.282Z</time></trkpt><trkpt lat="45.7878783" lon="9.1425617"><ele>465.0</ele><time>2026-05-01T17:58:21.282Z</time></trkpt><trkpt lat="45.7878133" lon="9.1426533"><ele>461.99999999999994</ele><time>2026-05-01T17:58:25.282Z</time></trkpt><trkpt lat="45.7877583" lon="9.142705"><ele>458.99999999999994</ele><time>2026-05-01T17:58:27.282Z</time></trkpt><trkpt lat="45.787705" lon="9.1427633"><ele>456.0</ele><time>2026-05-01T17:58:29.282Z</time></trkpt><trkpt lat="45.78762" lon="9.1428417"><ele>453.0</ele><time>2026-05-01T17:58:31.281Z</time></trkpt><trkpt lat="45.7875133" lon="9.1429517"><ele>453.0</ele><time>2026-05-01T17:58:33.282Z</time></trkpt><trkpt lat="45.7874317" lon="9.14305"><ele>452.99999999999994</ele><time>2026-05-01T17:58:34.281Z</time></trkpt><trkpt lat="45.787355" lon="9.14315"><ele>452.99999999999994</ele><time>2026-05-01T17:58:35.281Z</time></trkpt><trkpt lat="45.7872817" lon="9.1432583"><ele>453.0</ele><time>2026-05-01T17:58:36.282Z</time></trkpt><trkpt lat="45.7872083" lon="9.1433917"><ele>453.0</ele><time>2026-05-01T17:58:37.282Z</time></trkpt><trkpt lat="45.7871383" lon="9.1435333"><ele>457.25</ele><time>2026-05-01T17:58:38.282Z</time></trkpt><trkpt lat="45.7870733" lon="9.1436817"><ele>461.5</ele><time>2026-05-01T17:58:39.282Z</time></trkpt><trkpt lat="45.787015" lon="9.1438467"><ele>465.75</ele><time>2026-05-01T17:58:40.282Z</time></trkpt><trkpt lat="45.78695" lon="9.1440317"><ele>470.0</ele><time>2026-05-01T17:58:41.282Z</time></trkpt><trkpt lat="45.786895" lon="9.14421"><ele>463.2</ele><time>2026-05-01T17:58:42.282Z</time></trkpt><trkpt lat="45.7868417" lon="9.1443783"><ele>456.4</ele><time>2026-05-01T17:58:43.282Z</time></trkpt><trkpt lat="45.7868017" lon="9.1445267"><ele>449.6</ele><time>2026-05-01T17:58:44.282Z</time></trkpt><trkpt lat="45.786765" lon="9.1446717"><ele>442.8</ele><time>2026-05-01T17:58:45.282Z</time></trkpt><trkpt lat="45.78673" lon="9.1447967"><ele>436.0</ele><time>2026-05-01T17:58:46.282Z</time></trkpt><trkpt lat="45.7866767" lon="9.1449117"><ele>436.0</ele><time>2026-05-01T17:58:47.282Z</time></trkpt><trkpt lat="45.7866167" lon="9.14503"><ele>436.0</ele><time>2026-05-01T17:58:48.282Z</time></trkpt><trkpt lat="45.7865467" lon="9.14515"><ele>436.0</ele><time>2026-05-01T17:58:49.282Z</time></trkpt><trkpt lat="45.7864667" lon="9.1452367"><ele>436.0</ele><time>2026-05-01T17:58:50.282Z</time></trkpt><trkpt lat="45.7863883" lon="9.14531"><ele>436.0</ele><time>2026-05-01T17:58:51.282Z</time></trkpt><trkpt lat="45.7863167" lon="9.1454033"><ele>436.0</ele><time>2026-05-01T17:58:52.282Z</time></trkpt><trkpt lat="45.786225" lon="9.1454767"><ele>436.0</ele><time>2026-05-01T17:58:53.282Z</time></trkpt><trkpt lat="45.7861317" lon="9.145555"><ele>436.0</ele><time>2026-05-01T17:58:54.282Z</time></trkpt><trkpt lat="45.7860367" lon="9.14562"><ele>436.0</ele><time>2026-05-01T17:58:55.282Z</time></trkpt><trkpt lat="45.7859667" lon="9.145695"><ele>436.0</ele><time>2026-05-01T17:58:56.281Z</time></trkpt><trkpt lat="45.7859083" lon="9.1457883"><ele>432.50000000000006</ele><time>2026-05-01T17:58:57.281Z</time></trkpt><trkpt lat="45.7858617" lon="9.1458767"><ele>429.0</ele><time>2026-05-01T17:58:58.282Z</time></trkpt><trkpt lat="45.7858067" lon="9.1459933"><ele>425.5</ele><time>2026-05-01T17:59:00.282Z</time></trkpt><trkpt lat="45.7857467" lon="9.1460867"><ele>422.0</ele><time>2026-05-01T17:59:02.282Z</time></trkpt><trkpt lat="45.7856383" lon="9.1461267"><ele>418.50000000000006</ele><time>2026-05-01T17:59:04.282Z</time></trkpt><trkpt lat="45.7855733" lon="9.1461367"><ele>415.0</ele><time>2026-05-01T17:59:05.281Z</time></trkpt><trkpt lat="45.7854433" lon="9.1461567"><ele>415.0</ele><time>2026-05-01T17:59:07.282Z</time></trkpt><trkpt lat="45.7853783" lon="9.1461433"><ele>415.0</ele><time>2026-05-01T17:59:08.282Z</time></trkpt><trkpt lat="45.785295" lon="9.1460467"><ele>415.0</ele><time>2026-05-01T17:59:10.282Z</time></trkpt><trkpt lat="45.78524" lon="9.1459183"><ele>415.0</ele><time>2026-05-01T17:59:12.282Z</time></trkpt><trkpt lat="45.785165" lon="9.1458633"><ele>415.0</ele><time>2026-05-01T17:59:14.282Z</time></trkpt><trkpt lat="45.7850483" lon="9.145855"><ele>413.75</ele><time>2026-05-01T17:59:16.282Z</time></trkpt><trkpt lat="45.7849533" lon="9.145785"><ele>412.5</ele><time>2026-05-01T17:59:18.282Z</time></trkpt><trkpt lat="45.784875" lon="9.1456683"><ele>411.25</ele><time>2026-05-01T17:59:20.282Z</time></trkpt><trkpt lat="45.78479" lon="9.145555"><ele>410.0</ele><time>2026-05-01T17:59:22.281Z</time></trkpt><trkpt lat="45.7847117" lon="9.145435"><ele>410.0</ele><time>2026-05-01T17:59:24.282Z</time></trkpt><trkpt lat="45.78462" lon="9.1453367"><ele>410.0</ele><time>2026-05-01T17:59:26.282Z</time></trkpt><trkpt lat="45.7845183" lon="9.14525"><ele>410.0</ele><time>2026-05-01T17:59:28.282Z</time></trkpt><trkpt lat="45.7844183" lon="9.1452"><ele>410.0</ele><time>2026-05-01T17:59:30.281Z</time></trkpt><trkpt lat="45.7843033" lon="9.14516"><ele>409.4</ele><time>2026-05-01T17:59:32.282Z</time></trkpt><trkpt lat="45.784235" lon="9.1451417"><ele>408.8</ele><time>2026-05-01T17:59:33.281Z</time></trkpt><trkpt lat="45.7841117" lon="9.145095"><ele>408.20000000000005</ele><time>2026-05-01T17:59:35.282Z</time></trkpt><trkpt lat="45.78401" lon="9.1450467"><ele>407.6</ele><time>2026-05-01T17:59:37.282Z</time></trkpt><trkpt lat="45.7838833" lon="9.1450167"><ele>407.0</ele><time>2026-05-01T17:59:39.282Z</time></trkpt><trkpt lat="45.7838083" lon="9.1450033"><ele>406.99999999999994</ele><time>2026-05-01T17:59:40.282Z</time></trkpt><trkpt lat="45.7837317" lon="9.144995"><ele>407.0</ele><time>2026-05-01T17:59:41.282Z</time></trkpt><trkpt lat="45.78366" lon="9.1449883"><ele>407.0</ele><time>2026-05-01T17:59:42.281Z</time></trkpt><trkpt lat="45.7835383" lon="9.144985"><ele>407.0</ele><time>2026-05-01T17:59:44.282Z</time></trkpt><trkpt lat="45.783475" lon="9.1449817"><ele>406.99999999999994</ele><time>2026-05-01T17:59:45.282Z</time></trkpt><trkpt lat="45.7834117" lon="9.1449883"><ele>407.0</ele><time>2026-05-01T17:59:46.282Z</time></trkpt><trkpt lat="45.783345" lon="9.144995"><ele>405.99999999999994</ele><time>2026-05-01T17:59:47.282Z</time></trkpt><trkpt lat="45.7832817" lon="9.14501"><ele>405.0</ele><time>2026-05-01T17:59:48.282Z</time></trkpt><trkpt lat="45.7832133" lon="9.1450283"><ele>404.0</ele><time>2026-05-01T17:59:49.281Z</time></trkpt><trkpt lat="45.7831" lon="9.145065"><ele>403.0</ele><time>2026-05-01T17:59:51.282Z</time></trkpt><trkpt lat="45.7829933" lon="9.14511"><ele>401.99999999999994</ele><time>2026-05-01T17:59:53.282Z</time></trkpt><trkpt lat="45.7829267" lon="9.14514"><ele>401.0</ele><time>2026-05-01T17:59:54.282Z</time></trkpt><trkpt lat="45.7828567" lon="9.1451617"><ele>400.99999999999994</ele><time>2026-05-01T17:59:55.282Z</time></trkpt><trkpt lat="45.78279" lon="9.145175"><ele>401.0</ele><time>2026-05-01T17:59:56.282Z</time></trkpt><trkpt lat="45.7826883" lon="9.1451617"><ele>401.0</ele><time>2026-05-01T17:59:58.282Z</time></trkpt><trkpt lat="45.7825933" lon="9.145125"><ele>401.0</ele><time>2026-05-01T18:00:00.282Z</time></trkpt><trkpt lat="45.7825117" lon="9.1450817"><ele>400.99999999999994</ele><time>2026-05-01T18:00:02.281Z</time></trkpt><trkpt lat="45.7824383" lon="9.1450333"><ele>401.0</ele><time>2026-05-01T18:00:04.281Z</time></trkpt><trkpt lat="45.7823517" lon="9.1449717"><ele>401.16666666666663</ele><time>2026-05-01T18:00:06.281Z</time></trkpt><trkpt lat="45.7822683" lon="9.14491"><ele>401.3333333333333</ele><time>2026-05-01T18:00:08.281Z</time></trkpt><trkpt lat="45.7822" lon="9.1448217"><ele>401.5</ele><time>2026-05-01T18:00:10.28Z</time></trkpt><trkpt lat="45.782155" lon="9.1447283"><ele>401.66666666666663</ele><time>2026-05-01T18:00:12.281Z</time></trkpt><trkpt lat="45.7821183" lon="9.144635"><ele>401.8333333333333</ele><time>2026-05-01T18:00:14.281Z</time></trkpt><trkpt lat="45.7820567" lon="9.14454"><ele>402.0</ele><time>2026-05-01T18:00:17.28Z</time></trkpt><trkpt lat="45.78202" lon="9.144465"><ele>402.0</ele><time>2026-05-01T18:00:19.281Z</time></trkpt><trkpt lat="45.7819383" lon="9.1443717"><ele>402.0</ele><time>2026-05-01T18:00:21.281Z</time></trkpt><trkpt lat="45.7818283" lon="9.1442917"><ele>402.0</ele><time>2026-05-01T18:00:23.281Z</time></trkpt><trkpt lat="45.781725" lon="9.1442083"><ele>402.0</ele><time>2026-05-01T18:00:25.28Z</time></trkpt><trkpt lat="45.7816233" lon="9.1441483"><ele>402.5</ele><time>2026-05-01T18:00:27.28Z</time></trkpt><trkpt lat="45.781525" lon="9.1441083"><ele>403.0</ele><time>2026-05-01T18:00:29.281Z</time></trkpt><trkpt lat="45.7814383" lon="9.1440483"><ele>403.5</ele><time>2026-05-01T18:00:31.281Z</time></trkpt><trkpt lat="45.7813683" lon="9.1439833"><ele>404.0</ele><time>2026-05-01T18:00:33.281Z</time></trkpt><trkpt lat="45.7813" lon="9.1439267"><ele>404.5</ele><time>2026-05-01T18:00:35.28Z</time></trkpt><trkpt lat="45.7813117" lon="9.1440233"><ele>405.0</ele><time>2026-05-01T18:02:22.281Z</time></trkpt><trkpt lat="45.7813917" lon="9.1440983"><ele>405.0</ele><time>2026-05-01T18:02:24.28Z</time></trkpt><trkpt lat="45.7814517" lon="9.14413"><ele>405.0</ele><time>2026-05-01T18:02:25.28Z</time></trkpt><trkpt lat="45.7815683" lon="9.1441783"><ele>405.0</ele><time>2026-05-01T18:02:27.281Z</time></trkpt><trkpt lat="45.7816317" lon="9.1442217"><ele>405.0</ele><time>2026-05-01T18:02:28.281Z</time></trkpt><trkpt lat="45.78169" lon="9.144265"><ele>405.0</ele><time>2026-05-01T18:02:29.28Z</time></trkpt><trkpt lat="45.7817533" lon="9.144315"><ele>405.0</ele><time>2026-05-01T18:02:30.28Z</time></trkpt><trkpt lat="45.7818183" lon="9.14436"><ele>404.57142857142856</ele><time>2026-05-01T18:02:31.281Z</time></trkpt><trkpt lat="45.78188" lon="9.14442"><ele>404.1428571428571</ele><time>2026-05-01T18:02:32.281Z</time></trkpt><trkpt lat="45.7819317" lon="9.1444983"><ele>403.71428571428567</ele><time>2026-05-01T18:02:33.281Z</time></trkpt><trkpt lat="45.7819783" lon="9.1445783"><ele>403.2857142857143</ele><time>2026-05-01T18:02:34.281Z</time></trkpt><trkpt lat="45.7820183" lon="9.14467"><ele>402.8571428571429</ele><time>2026-05-01T18:02:35.28Z</time></trkpt><trkpt lat="45.7820583" lon="9.144755"><ele>402.4285714285714</ele><time>2026-05-01T18:02:36.281Z</time></trkpt><trkpt lat="45.782095" lon="9.1448383"><ele>402.0</ele><time>2026-05-01T18:02:37.281Z</time></trkpt><trkpt lat="45.7821433" lon="9.1449167"><ele>402.0</ele><time>2026-05-01T18:02:38.281Z</time></trkpt><trkpt lat="45.782195" lon="9.14498"><ele>402.0</ele><time>2026-05-01T18:02:39.28Z</time></trkpt><trkpt lat="45.7822433" lon="9.1450383"><ele>402.0</ele><time>2026-05-01T18:02:40.281Z</time></trkpt><trkpt lat="45.7823383" lon="9.1451483"><ele>402.0</ele><time>2026-05-01T18:02:42.281Z</time></trkpt><trkpt lat="45.7824483" lon="9.1452283"><ele>402.0</ele><time>2026-05-01T18:02:44.281Z</time></trkpt><trkpt lat="45.7825433" lon="9.1452733"><ele>402.0</ele><time>2026-05-01T18:02:46.281Z</time></trkpt><trkpt lat="45.7826067" lon="9.1452933"><ele>402.0</ele><time>2026-05-01T18:02:47.281Z</time></trkpt><trkpt lat="45.7827233" lon="9.1453017"><ele>402.0</ele><time>2026-05-01T18:02:49.281Z</time></trkpt><trkpt lat="45.78283" lon="9.1452767"><ele>402.0</ele><time>2026-05-01T18:02:51.281Z</time></trkpt><trkpt lat="45.7829417" lon="9.1452517"><ele>402.0</ele><time>2026-05-01T18:02:53.281Z</time></trkpt><trkpt lat="45.7830417" lon="9.145215"><ele>401.8</ele><time>2026-05-01T18:02:55.281Z</time></trkpt><trkpt lat="45.783135" lon="9.1451833"><ele>401.6</ele><time>2026-05-01T18:02:57.281Z</time></trkpt><trkpt lat="45.7832283" lon="9.145155"><ele>401.40000000000003</ele><time>2026-05-01T18:02:59.281Z</time></trkpt><trkpt lat="45.7833317" lon="9.1451483"><ele>401.20000000000005</ele><time>2026-05-01T18:03:01.281Z</time></trkpt><trkpt lat="45.7834317" lon="9.145135"><ele>401.0</ele><time>2026-05-01T18:03:03.281Z</time></trkpt><trkpt lat="45.78353" lon="9.1451167"><ele>401.99999999999994</ele><time>2026-05-01T18:03:05.28Z</time></trkpt><trkpt lat="45.7836233" lon="9.14511"><ele>403.0</ele><time>2026-05-01T18:03:07.281Z</time></trkpt><trkpt lat="45.7836983" lon="9.14512"><ele>404.0</ele><time>2026-05-01T18:03:09.281Z</time></trkpt><trkpt lat="45.7837883" lon="9.14514"><ele>405.0</ele><time>2026-05-01T18:03:11.281Z</time></trkpt><trkpt lat="45.78388" lon="9.1451467"><ele>405.99999999999994</ele><time>2026-05-01T18:03:13.281Z</time></trkpt><trkpt lat="45.7839733" lon="9.1451667"><ele>407.0</ele><time>2026-05-01T18:03:15.281Z</time></trkpt><trkpt lat="45.784075" lon="9.1451833"><ele>407.0</ele><time>2026-05-01T18:03:17.281Z</time></trkpt><trkpt lat="45.7841633" lon="9.1452167"><ele>407.0</ele><time>2026-05-01T18:03:19.281Z</time></trkpt><trkpt lat="45.7842467" lon="9.1452567"><ele>407.0</ele><time>2026-05-01T18:03:21.28Z</time></trkpt><trkpt lat="45.7843433" lon="9.1452983"><ele>407.0</ele><time>2026-05-01T18:03:23.28Z</time></trkpt><trkpt lat="45.7844217" lon="9.1453417"><ele>407.0</ele><time>2026-05-01T18:03:25.281Z</time></trkpt><trkpt lat="45.7845067" lon="9.14539"><ele>407.6</ele><time>2026-05-01T18:03:27.281Z</time></trkpt><trkpt lat="45.7845633" lon="9.1454533"><ele>408.20000000000005</ele><time>2026-05-01T18:03:29.281Z</time></trkpt><trkpt lat="45.7846317" lon="9.1455217"><ele>408.8</ele><time>2026-05-01T18:03:31.28Z</time></trkpt><trkpt lat="45.7847017" lon="9.145605"><ele>409.4</ele><time>2026-05-01T18:03:33.281Z</time></trkpt><trkpt lat="45.7847683" lon="9.14572"><ele>410.0</ele><time>2026-05-01T18:03:35.281Z</time></trkpt><trkpt lat="45.78483" lon="9.1458333"><ele>410.0</ele><time>2026-05-01T18:03:37.281Z</time></trkpt><trkpt lat="45.7848267" lon="9.1459733"><ele>410.0</ele><time>2026-05-01T18:03:39.281Z</time></trkpt><trkpt lat="45.7847583" lon="9.1461017"><ele>410.0</ele><time>2026-05-01T18:03:41.28Z</time></trkpt><trkpt lat="45.7846717" lon="9.1462167"><ele>410.0</ele><time>2026-05-01T18:03:43.281Z</time></trkpt><trkpt lat="45.7845833" lon="9.146325"><ele>410.0</ele><time>2026-05-01T18:03:45.281Z</time></trkpt><trkpt lat="45.7844867" lon="9.14643"><ele>409.8333333333333</ele><time>2026-05-01T18:03:47.281Z</time></trkpt><trkpt lat="45.7844" lon="9.14655"><ele>409.66666666666663</ele><time>2026-05-01T18:03:49.28Z</time></trkpt><trkpt lat="45.7843517" lon="9.146615"><ele>409.5</ele><time>2026-05-01T18:03:50.281Z</time></trkpt><trkpt lat="45.7843033" lon="9.14668"><ele>409.33333333333337</ele><time>2026-05-01T18:03:51.281Z</time></trkpt><trkpt lat="45.7842633" lon="9.1467517"><ele>409.1666666666667</ele><time>2026-05-01T18:03:52.281Z</time></trkpt><trkpt lat="45.7842317" lon="9.1468367"><ele>409.0</ele><time>2026-05-01T18:03:53.281Z</time></trkpt><trkpt lat="45.7842" lon="9.1469233"><ele>409.0</ele><time>2026-05-01T18:03:54.28Z</time></trkpt><trkpt lat="45.7841767" lon="9.1470133"><ele>409.0</ele><time>2026-05-01T18:03:55.281Z</time></trkpt><trkpt lat="45.784155" lon="9.1471117"><ele>409.0</ele><time>2026-05-01T18:03:56.281Z</time></trkpt><trkpt lat="45.7841317" lon="9.147205"><ele>409.0</ele><time>2026-05-01T18:03:57.281Z</time></trkpt><trkpt lat="45.7841083" lon="9.147305"><ele>409.0</ele><time>2026-05-01T18:03:58.28Z</time></trkpt><trkpt lat="45.7840817" lon="9.1473983"><ele>409.0</ele><time>2026-05-01T18:03:59.281Z</time></trkpt><trkpt lat="45.7840567" lon="9.1474967"><ele>409.0</ele><time>2026-05-01T18:04:00.281Z</time></trkpt><trkpt lat="45.7840367" lon="9.1475833"><ele>408.2857142857143</ele><time>2026-05-01T18:04:01.281Z</time></trkpt><trkpt lat="45.7839967" lon="9.1476733"><ele>407.5714285714286</ele><time>2026-05-01T18:04:02.281Z</time></trkpt><trkpt lat="45.783965" lon="9.1477633"><ele>406.8571428571429</ele><time>2026-05-01T18:04:03.28Z</time></trkpt><trkpt lat="45.7839367" lon="9.147855"><ele>406.1428571428571</ele><time>2026-05-01T18:04:04.281Z</time></trkpt><trkpt lat="45.7839183" lon="9.1479467"><ele>405.42857142857144</ele><time>2026-05-01T18:04:05.281Z</time></trkpt><trkpt lat="45.783905" lon="9.1480417"><ele>404.7142857142857</ele><time>2026-05-01T18:04:06.281Z</time></trkpt><trkpt lat="45.7839" lon="9.1481467"><ele>404.0</ele><time>2026-05-01T18:04:07.281Z</time></trkpt><trkpt lat="45.7838983" lon="9.1482517"><ele>403.57142857142856</ele><time>2026-05-01T18:04:08.28Z</time></trkpt><trkpt lat="45.7839033" lon="9.14835"><ele>403.1428571428571</ele><time>2026-05-01T18:04:09.28Z</time></trkpt><trkpt lat="45.7839133" lon="9.1484467"><ele>402.7142857142857</ele><time>2026-05-01T18:04:10.281Z</time></trkpt><trkpt lat="45.783925" lon="9.1485433"><ele>402.2857142857143</ele><time>2026-05-01T18:04:11.28Z</time></trkpt><trkpt lat="45.783935" lon="9.14865"><ele>401.8571428571429</ele><time>2026-05-01T18:04:12.28Z</time></trkpt><trkpt lat="45.7839417" lon="9.14876"><ele>401.42857142857144</ele><time>2026-05-01T18:04:13.281Z</time></trkpt><trkpt lat="45.7839517" lon="9.1488733"><ele>401.0</ele><time>2026-05-01T18:04:14.281Z</time></trkpt><trkpt lat="45.7839617" lon="9.14898"><ele>400.16666666666663</ele><time>2026-05-01T18:04:15.281Z</time></trkpt><trkpt lat="45.7839717" lon="9.1490817"><ele>399.3333333333333</ele><time>2026-05-01T18:04:16.281Z</time></trkpt><trkpt lat="45.7839733" lon="9.149195"><ele>398.5</ele><time>2026-05-01T18:04:17.281Z</time></trkpt><trkpt lat="45.7839717" lon="9.1493117"><ele>397.66666666666663</ele><time>2026-05-01T18:04:18.281Z</time></trkpt><trkpt lat="45.78397" lon="9.1494233"><ele>396.8333333333333</ele><time>2026-05-01T18:04:19.281Z</time></trkpt><trkpt lat="45.78397" lon="9.14954"><ele>396.0</ele><time>2026-05-01T18:04:20.281Z</time></trkpt><trkpt lat="45.78397" lon="9.1496533"><ele>396.0</ele><time>2026-05-01T18:04:21.28Z</time></trkpt><trkpt lat="45.78396" lon="9.14977"><ele>396.0</ele><time>2026-05-01T18:04:22.281Z</time></trkpt><trkpt lat="45.7839483" lon="9.149885"><ele>396.0</ele><time>2026-05-01T18:04:23.28Z</time></trkpt><trkpt lat="45.7839417" lon="9.1499967"><ele>396.0</ele><time>2026-05-01T18:04:24.281Z</time></trkpt><trkpt lat="45.7839283" lon="9.15011"><ele>396.0</ele><time>2026-05-01T18:04:25.281Z</time></trkpt><trkpt lat="45.7839317" lon="9.150225"><ele>396.0</ele><time>2026-05-01T18:04:26.281Z</time></trkpt><trkpt lat="45.7839267" lon="9.1503417"><ele>395.3333333333333</ele><time>2026-05-01T18:04:27.281Z</time></trkpt><trkpt lat="45.7839267" lon="9.1504583"><ele>394.66666666666663</ele><time>2026-05-01T18:04:28.281Z</time></trkpt><trkpt lat="45.7839383" lon="9.1505683"><ele>394.0</ele><time>2026-05-01T18:04:29.281Z</time></trkpt><trkpt lat="45.7839417" lon="9.1506733"><ele>393.3333333333333</ele><time>2026-05-01T18:04:30.281Z</time></trkpt><trkpt lat="45.7839433" lon="9.1507833"><ele>392.66666666666663</ele><time>2026-05-01T18:04:31.281Z</time></trkpt><trkpt lat="45.78395" lon="9.1508933"><ele>392.0</ele><time>2026-05-01T18:04:32.28Z</time></trkpt><trkpt lat="45.783955" lon="9.1509967"><ele>392.0</ele><time>2026-05-01T18:04:33.281Z</time></trkpt><trkpt lat="45.7839583" lon="9.1510983"><ele>392.0</ele><time>2026-05-01T18:04:34.281Z</time></trkpt><trkpt lat="45.7839617" lon="9.1512067"><ele>392.0</ele><time>2026-05-01T18:04:35.281Z</time></trkpt><trkpt lat="45.7839717" lon="9.15131"><ele>392.0</ele><time>2026-05-01T18:04:36.281Z</time></trkpt><trkpt lat="45.7839817" lon="9.151415"><ele>392.0</ele><time>2026-05-01T18:04:37.281Z</time></trkpt><trkpt lat="45.7839867" lon="9.151515"><ele>392.0</ele><time>2026-05-01T18:04:38.281Z</time></trkpt><trkpt lat="45.784005" lon="9.1516167"><ele>392.0</ele><time>2026-05-01T18:04:39.28Z</time></trkpt><trkpt lat="45.7840117" lon="9.151715"><ele>391.3333333333333</ele><time>2026-05-01T18:04:40.28Z</time></trkpt><trkpt lat="45.7840167" lon="9.1518083"><ele>390.66666666666663</ele><time>2026-05-01T18:04:41.281Z</time></trkpt><trkpt lat="45.7840233" lon="9.1519017"><ele>390.0</ele><time>2026-05-01T18:04:42.281Z</time></trkpt><trkpt lat="45.7840383" lon="9.15199"><ele>389.33333333333337</ele><time>2026-05-01T18:04:43.281Z</time></trkpt><trkpt lat="45.784065" lon="9.1521517"><ele>388.6666666666667</ele><time>2026-05-01T18:04:45.281Z</time></trkpt><trkpt lat="45.7840983" lon="9.152325"><ele>388.0</ele><time>2026-05-01T18:04:47.28Z</time></trkpt><trkpt lat="45.7841233" lon="9.15249"><ele>387.2</ele><time>2026-05-01T18:04:49.281Z</time></trkpt><trkpt lat="45.784155" lon="9.1526367"><ele>386.4</ele><time>2026-05-01T18:04:51.281Z</time></trkpt><trkpt lat="45.7841967" lon="9.1527817"><ele>385.59999999999997</ele><time>2026-05-01T18:04:53.281Z</time></trkpt><trkpt lat="45.78423" lon="9.1529117"><ele>384.79999999999995</ele><time>2026-05-01T18:04:55.281Z</time></trkpt><trkpt lat="45.78427" lon="9.153025"><ele>384.0</ele><time>2026-05-01T18:04:57.281Z</time></trkpt><trkpt lat="45.78432" lon="9.153155"><ele>386.2</ele><time>2026-05-01T18:04:59.281Z</time></trkpt><trkpt lat="45.78437" lon="9.15328"><ele>388.4</ele><time>2026-05-01T18:05:01.281Z</time></trkpt><trkpt lat="45.7844117" lon="9.1534017"><ele>390.6</ele><time>2026-05-01T18:05:03.281Z</time></trkpt><trkpt lat="45.7844333" lon="9.153515"><ele>392.8</ele><time>2026-05-01T18:05:05.281Z</time></trkpt><trkpt lat="45.7844683" lon="9.1536517"><ele>395.0</ele><time>2026-05-01T18:05:07.281Z</time></trkpt><trkpt lat="45.7844883" lon="9.1538167"><ele>395.0</ele><time>2026-05-01T18:05:09.281Z</time></trkpt><trkpt lat="45.7845" lon="9.15397"><ele>395.0</ele><time>2026-05-01T18:05:11.281Z</time></trkpt><trkpt lat="45.7845183" lon="9.1541217"><ele>395.0</ele><time>2026-05-01T18:05:13.281Z</time></trkpt><trkpt lat="45.784525" lon="9.1542733"><ele>395.0</ele><time>2026-05-01T18:05:15.281Z</time></trkpt><trkpt lat="45.78452" lon="9.1544267"><ele>395.0</ele><time>2026-05-01T18:05:17.281Z</time></trkpt><trkpt lat="45.7845183" lon="9.154585"><ele>394.2</ele><time>2026-05-01T18:05:19.281Z</time></trkpt><trkpt lat="45.7845233" lon="9.15474"><ele>393.4</ele><time>2026-05-01T18:05:21.281Z</time></trkpt><trkpt lat="45.7845317" lon="9.154895"><ele>392.6</ele><time>2026-05-01T18:05:23.281Z</time></trkpt><trkpt lat="45.7845383" lon="9.1550467"><ele>391.8</ele><time>2026-05-01T18:05:25.281Z</time></trkpt><trkpt lat="45.784545" lon="9.1552067"><ele>391.0</ele><time>2026-05-01T18:05:27.281Z</time></trkpt><trkpt lat="45.7845467" lon="9.1553583"><ele>390.6</ele><time>2026-05-01T18:05:29.279Z</time></trkpt><trkpt lat="45.784545" lon="9.155505"><ele>390.20000000000005</ele><time>2026-05-01T18:05:31.279Z</time></trkpt><trkpt lat="45.7845517" lon="9.1556433"><ele>389.79999999999995</ele><time>2026-05-01T18:05:33.28Z</time></trkpt><trkpt lat="45.7845522" lon="9.1557927"><ele>389.4</ele><time>2026-05-01T18:05:35.28Z</time></trkpt><trkpt lat="45.7845651" lon="9.1559401"><ele>389.0</ele><time>2026-05-01T18:05:37.279Z</time></trkpt><trkpt lat="45.7845799" lon="9.1560903"><ele>388.4</ele><time>2026-05-01T18:05:39.279Z</time></trkpt><trkpt lat="45.7845998" lon="9.1562342"><ele>387.79999999999995</ele><time>2026-05-01T18:05:41.28Z</time></trkpt><trkpt lat="45.7846079" lon="9.1563833"><ele>387.20000000000005</ele><time>2026-05-01T18:05:43.28Z</time></trkpt><trkpt lat="45.784648" lon="9.1565226"><ele>386.6</ele><time>2026-05-01T18:05:45.279Z</time></trkpt><trkpt lat="45.7847302" lon="9.1565928"><ele>386.0</ele><time>2026-05-01T18:05:47.28Z</time></trkpt><trkpt lat="45.7848095" lon="9.1566335"><ele>385.99999999999994</ele><time>2026-05-01T18:05:49.28Z</time></trkpt><trkpt lat="45.7848828" lon="9.1566259"><ele>386.0</ele><time>2026-05-01T18:05:51.28Z</time></trkpt><trkpt lat="45.7849728" lon="9.156612"><ele>386.0</ele><time>2026-05-01T18:05:53.28Z</time></trkpt><trkpt lat="45.7850563" lon="9.1565917"><ele>386.0</ele><time>2026-05-01T18:05:55.28Z</time></trkpt><trkpt lat="45.7851424" lon="9.1565843"><ele>385.99999999999994</ele><time>2026-05-01T18:05:57.28Z</time></trkpt><trkpt lat="45.7852293" lon="9.1565769"><ele>386.0</ele><time>2026-05-01T18:05:59.28Z</time></trkpt><trkpt lat="45.7853226" lon="9.1565779"><ele>386.20000000000005</ele><time>2026-05-01T18:06:01.28Z</time></trkpt><trkpt lat="45.7854188" lon="9.1565714"><ele>386.40000000000003</ele><time>2026-05-01T18:06:03.28Z</time></trkpt><trkpt lat="45.7855178" lon="9.1565632"><ele>386.6</ele><time>2026-05-01T18:06:05.28Z</time></trkpt><trkpt lat="45.7856162" lon="9.1565505"><ele>386.8</ele><time>2026-05-01T18:06:07.28Z</time></trkpt><trkpt lat="45.7857129" lon="9.1565391"><ele>387.0</ele><time>2026-05-01T18:06:09.28Z</time></trkpt><trkpt lat="45.7858043" lon="9.1565339"><ele>387.0</ele><time>2026-05-01T18:06:11.28Z</time></trkpt><trkpt lat="45.7858959" lon="9.1565236"><ele>387.0</ele><time>2026-05-01T18:06:13.28Z</time></trkpt><trkpt lat="45.7859927" lon="9.1565211"><ele>387.0</ele><time>2026-05-01T18:06:15.28Z</time></trkpt><trkpt lat="45.7860962" lon="9.1565355"><ele>387.0</ele><time>2026-05-01T18:06:17.28Z</time></trkpt><trkpt lat="45.7861906" lon="9.1565805"><ele>387.0</ele><time>2026-05-01T18:06:19.28Z</time></trkpt><trkpt lat="45.7862683" lon="9.156625"><ele>386.6</ele><time>2026-05-01T18:06:21.28Z</time></trkpt><trkpt lat="45.7863567" lon="9.1566783"><ele>386.20000000000005</ele><time>2026-05-01T18:06:23.28Z</time></trkpt><trkpt lat="45.7864517" lon="9.15673"><ele>385.8</ele><time>2026-05-01T18:06:25.28Z</time></trkpt><trkpt lat="45.78655" lon="9.1567667"><ele>385.4</ele><time>2026-05-01T18:06:27.28Z</time></trkpt><trkpt lat="45.7866467" lon="9.1568183"><ele>385.0</ele><time>2026-05-01T18:06:29.28Z</time></trkpt><trkpt lat="45.78675" lon="9.15687"><ele>385.0</ele><time>2026-05-01T18:06:31.28Z</time></trkpt><trkpt lat="45.7868417" lon="9.1569167"><ele>385.0</ele><time>2026-05-01T18:06:33.28Z</time></trkpt><trkpt lat="45.7869367" lon="9.1569633"><ele>385.0</ele><time>2026-05-01T18:06:35.28Z</time></trkpt><trkpt lat="45.7870333" lon="9.1570083"><ele>385.0</ele><time>2026-05-01T18:06:37.28Z</time></trkpt><trkpt lat="45.7871167" lon="9.1570617"><ele>385.0</ele><time>2026-05-01T18:06:39.28Z</time></trkpt><trkpt lat="45.7872083" lon="9.15711"><ele>385.50000000000006</ele><time>2026-05-01T18:06:41.279Z</time></trkpt><trkpt lat="45.7873" lon="9.1571567"><ele>386.0</ele><time>2026-05-01T18:06:43.28Z</time></trkpt><trkpt lat="45.78739" lon="9.1572"><ele>386.5</ele><time>2026-05-01T18:06:45.28Z</time></trkpt><trkpt lat="45.7874683" lon="9.1572567"><ele>387.0</ele><time>2026-05-01T18:06:47.28Z</time></trkpt><trkpt lat="45.7875433" lon="9.1573"><ele>387.50000000000006</ele><time>2026-05-01T18:06:49.28Z</time></trkpt><trkpt lat="45.7876183" lon="9.1573433"><ele>388.0</ele><time>2026-05-01T18:06:51.28Z</time></trkpt><trkpt lat="45.7877117" lon="9.1573733"><ele>388.2</ele><time>2026-05-01T18:06:53.28Z</time></trkpt><trkpt lat="45.787795" lon="9.1574117"><ele>388.4</ele><time>2026-05-01T18:06:55.28Z</time></trkpt><trkpt lat="45.7878917" lon="9.1574583"><ele>388.59999999999997</ele><time>2026-05-01T18:06:57.28Z</time></trkpt><trkpt lat="45.787985" lon="9.1575017"><ele>388.79999999999995</ele><time>2026-05-01T18:06:59.28Z</time></trkpt><trkpt lat="45.7880783" lon="9.1575467"><ele>389.0</ele><time>2026-05-01T18:07:01.28Z</time></trkpt><trkpt lat="45.7881467" lon="9.1576"><ele>388.99999999999994</ele><time>2026-05-01T18:07:03.28Z</time></trkpt><trkpt lat="45.788225" lon="9.157645"><ele>389.0</ele><time>2026-05-01T18:07:05.28Z</time></trkpt><trkpt lat="45.7883067" lon="9.1577133"><ele>389.0</ele><time>2026-05-01T18:07:07.28Z</time></trkpt><trkpt lat="45.7883783" lon="9.15774"><ele>389.0</ele><time>2026-05-01T18:07:09.28Z</time></trkpt><trkpt lat="45.78845" lon="9.15773"><ele>388.99999999999994</ele><time>2026-05-01T18:07:11.28Z</time></trkpt><trkpt lat="45.7885117" lon="9.1576933"><ele>389.0</ele><time>2026-05-01T18:07:13.28Z</time></trkpt><trkpt lat="45.7885867" lon="9.1576417"><ele>389.0</ele><time>2026-05-01T18:07:15.28Z</time></trkpt><trkpt lat="45.7886583" lon="9.1576217"><ele>389.0</ele><time>2026-05-01T18:07:17.28Z</time></trkpt><trkpt lat="45.7887233" lon="9.1575867"><ele>389.0</ele><time>2026-05-01T18:07:19.279Z</time></trkpt><trkpt lat="45.7887917" lon="9.157545"><ele>389.0</ele><time>2026-05-01T18:07:21.28Z</time></trkpt><trkpt lat="45.7888683" lon="9.1575817"><ele>389.0</ele><time>2026-05-01T18:07:23.28Z</time></trkpt><trkpt lat="45.7889267" lon="9.15764"><ele>389.0</ele><time>2026-05-01T18:07:25.28Z</time></trkpt><trkpt lat="45.78898" lon="9.1577217"><ele>389.0</ele><time>2026-05-01T18:07:27.28Z</time></trkpt><trkpt lat="45.788965" lon="9.157825"><ele>388.99999999999994</ele><time>2026-05-01T18:07:29.28Z</time></trkpt><trkpt lat="45.7889383" lon="9.1579317"><ele>389.0</ele><time>2026-05-01T18:07:31.28Z</time></trkpt><trkpt lat="45.78896" lon="9.15803"><ele>389.0</ele><time>2026-05-01T18:07:33.28Z</time></trkpt><trkpt lat="45.7890267" lon="9.1580717"><ele>389.0</ele><time>2026-05-01T18:07:35.28Z</time></trkpt><trkpt lat="45.789105" lon="9.1580967"><ele>388.99999999999994</ele><time>2026-05-01T18:07:37.28Z</time></trkpt><trkpt lat="45.7891867" lon="9.1581383"><ele>389.0</ele><time>2026-05-01T18:07:39.28Z</time></trkpt><trkpt lat="45.7892683" lon="9.158175"><ele>389.16666666666663</ele><time>2026-05-01T18:07:41.279Z</time></trkpt><trkpt lat="45.7893467" lon="9.1582133"><ele>389.3333333333333</ele><time>2026-05-01T18:07:43.28Z</time></trkpt><trkpt lat="45.789425" lon="9.1582467"><ele>389.5</ele><time>2026-05-01T18:07:45.279Z</time></trkpt><trkpt lat="45.7894883" lon="9.1582833"><ele>389.66666666666663</ele><time>2026-05-01T18:07:47.28Z</time></trkpt><trkpt lat="45.7895483" lon="9.1583183"><ele>389.8333333333333</ele><time>2026-05-01T18:07:50.28Z</time></trkpt><trkpt lat="45.7896083" lon="9.1583583"><ele>390.0</ele><time>2026-05-01T18:07:53.28Z</time></trkpt><trkpt lat="45.78969" lon="9.1584017"><ele>390.0</ele><time>2026-05-01T18:07:56.28Z</time></trkpt><trkpt lat="45.789775" lon="9.1584633"><ele>390.0</ele><time>2026-05-01T18:07:59.28Z</time></trkpt><trkpt lat="45.7898333" lon="9.1584983"><ele>390.0</ele><time>2026-05-01T18:08:01.28Z</time></trkpt><trkpt lat="45.78989" lon="9.15854"><ele>390.0</ele><time>2026-05-01T18:08:03.279Z</time></trkpt><trkpt lat="45.7899483" lon="9.1585883"><ele>390.0</ele><time>2026-05-01T18:08:05.279Z</time></trkpt><trkpt lat="45.7900367" lon="9.15864"><ele>390.0</ele><time>2026-05-01T18:08:08.28Z</time></trkpt><trkpt lat="45.790115" lon="9.1586667"><ele>390.3333333333333</ele><time>2026-05-01T18:08:10.28Z</time></trkpt><trkpt lat="45.7901917" lon="9.1587033"><ele>390.66666666666663</ele><time>2026-05-01T18:08:12.28Z</time></trkpt><trkpt lat="45.7902633" lon="9.1586933"><ele>391.0</ele><time>2026-05-01T18:08:14.28Z</time></trkpt><trkpt lat="45.79034" lon="9.1586567"><ele>391.3333333333333</ele><time>2026-05-01T18:08:16.28Z</time></trkpt><trkpt lat="45.7904283" lon="9.158635"><ele>391.66666666666663</ele><time>2026-05-01T18:08:18.28Z</time></trkpt><trkpt lat="45.7905067" lon="9.1586083"><ele>392.0</ele><time>2026-05-01T18:08:20.28Z</time></trkpt><trkpt lat="45.79058" lon="9.1585817"><ele>392.0</ele><time>2026-05-01T18:08:22.279Z</time></trkpt><trkpt lat="45.7906533" lon="9.1585667"><ele>392.0</ele><time>2026-05-01T18:08:24.28Z</time></trkpt><trkpt lat="45.790725" lon="9.15857"><ele>392.0</ele><time>2026-05-01T18:08:26.28Z</time></trkpt><trkpt lat="45.7907917" lon="9.1585717"><ele>392.0</ele><time>2026-05-01T18:08:28.279Z</time></trkpt><trkpt lat="45.7908617" lon="9.1585767"><ele>392.0</ele><time>2026-05-01T18:08:30.279Z</time></trkpt><trkpt lat="45.7909333" lon="9.1585767"><ele>392.0</ele><time>2026-05-01T18:08:32.279Z</time></trkpt><trkpt lat="45.7910067" lon="9.1585867"><ele>392.0</ele><time>2026-05-01T18:08:34.28Z</time></trkpt><trkpt lat="45.791075" lon="9.1586017"><ele>392.0</ele><time>2026-05-01T18:08:36.28Z</time></trkpt><trkpt lat="45.79114" lon="9.1585917"><ele>392.0</ele><time>2026-05-01T18:08:38.279Z</time></trkpt><trkpt lat="45.7912083" lon="9.158595"><ele>392.0</ele><time>2026-05-01T18:08:40.28Z</time></trkpt><trkpt lat="45.7912767" lon="9.1586017"><ele>392.0</ele><time>2026-05-01T18:08:42.28Z</time></trkpt><trkpt lat="45.7913483" lon="9.158595"><ele>392.0</ele><time>2026-05-01T18:08:44.28Z</time></trkpt><trkpt lat="45.7914233" lon="9.1586067"><ele>392.0</ele><time>2026-05-01T18:08:46.28Z</time></trkpt><trkpt lat="45.7914983" lon="9.158605"><ele>392.0</ele><time>2026-05-01T18:08:48.28Z</time></trkpt><trkpt lat="45.7915767" lon="9.15861"><ele>392.0</ele><time>2026-05-01T18:08:50.28Z</time></trkpt><trkpt lat="45.7916517" lon="9.158615"><ele>392.0</ele><time>2026-05-01T18:08:52.28Z</time></trkpt><trkpt lat="45.7917167" lon="9.1586283"><ele>392.0</ele><time>2026-05-01T18:08:54.28Z</time></trkpt><trkpt lat="45.7917867" lon="9.1586333"><ele>392.0</ele><time>2026-05-01T18:08:56.279Z</time></trkpt><trkpt lat="45.79186" lon="9.1586417"><ele>392.0</ele><time>2026-05-01T18:08:58.28Z</time></trkpt><trkpt lat="45.79193" lon="9.158665"><ele>392.0</ele><time>2026-05-01T18:09:00.28Z</time></trkpt><trkpt lat="45.792005" lon="9.1586867"><ele>392.0</ele><time>2026-05-01T18:09:02.28Z</time></trkpt><trkpt lat="45.7920683" lon="9.158695"><ele>392.14285714285717</ele><time>2026-05-01T18:09:04.28Z</time></trkpt><trkpt lat="45.792135" lon="9.1587017"><ele>392.2857142857143</ele><time>2026-05-01T18:09:06.28Z</time></trkpt><trkpt lat="45.7921983" lon="9.1587183"><ele>392.42857142857144</ele><time>2026-05-01T18:09:08.28Z</time></trkpt><trkpt lat="45.79227" lon="9.15873"><ele>392.57142857142856</ele><time>2026-05-01T18:09:10.28Z</time></trkpt><trkpt lat="45.7923383" lon="9.1587417"><ele>392.7142857142857</ele><time>2026-05-01T18:09:12.28Z</time></trkpt><trkpt lat="45.7924167" lon="9.1587483"><ele>392.8571428571429</ele><time>2026-05-01T18:09:14.28Z</time></trkpt><trkpt lat="45.792485" lon="9.1587683"><ele>393.0</ele><time>2026-05-01T18:09:16.28Z</time></trkpt><trkpt lat="45.79256" lon="9.1587883"><ele>393.00000000000006</ele><time>2026-05-01T18:09:18.28Z</time></trkpt><trkpt lat="45.7926283" lon="9.1587967"><ele>393.0</ele><time>2026-05-01T18:09:20.28Z</time></trkpt><trkpt lat="45.7927117" lon="9.1588067"><ele>393.0</ele><time>2026-05-01T18:09:22.28Z</time></trkpt><trkpt lat="45.7927833" lon="9.1588217"><ele>393.0</ele><time>2026-05-01T18:09:24.28Z</time></trkpt><trkpt lat="45.7928517" lon="9.1588283"><ele>393.0</ele><time>2026-05-01T18:09:26.28Z</time></trkpt><trkpt lat="45.79292" lon="9.15884"><ele>393.00000000000006</ele><time>2026-05-01T18:09:28.28Z</time></trkpt><trkpt lat="45.7929833" lon="9.158855"><ele>393.0</ele><time>2026-05-01T18:09:30.28Z</time></trkpt><trkpt lat="45.7930783" lon="9.1588683"><ele>393.3333333333333</ele><time>2026-05-01T18:09:33.28Z</time></trkpt><trkpt lat="45.7931567" lon="9.1588767"><ele>393.66666666666663</ele><time>2026-05-01T18:09:35.28Z</time></trkpt><trkpt lat="45.793235" lon="9.15889"><ele>394.0</ele><time>2026-05-01T18:09:37.279Z</time></trkpt><trkpt lat="45.79331" lon="9.1589"><ele>394.3333333333333</ele><time>2026-05-01T18:09:39.28Z</time></trkpt><trkpt lat="45.79339" lon="9.15891"><ele>394.66666666666663</ele><time>2026-05-01T18:09:41.279Z</time></trkpt><trkpt lat="45.79346" lon="9.1589217"><ele>395.0</ele><time>2026-05-01T18:09:43.28Z</time></trkpt><trkpt lat="45.79353" lon="9.1589283"><ele>395.49999999999994</ele><time>2026-05-01T18:09:45.28Z</time></trkpt><trkpt lat="45.7936117" lon="9.1589433"><ele>396.0</ele><time>2026-05-01T18:09:47.28Z</time></trkpt><trkpt lat="45.7936917" lon="9.158945"><ele>396.5</ele><time>2026-05-01T18:09:49.28Z</time></trkpt><trkpt lat="45.793765" lon="9.1589517"><ele>397.0</ele><time>2026-05-01T18:09:51.28Z</time></trkpt><trkpt lat="45.793845" lon="9.1589667"><ele>397.49999999999994</ele><time>2026-05-01T18:09:53.279Z</time></trkpt><trkpt lat="45.7939283" lon="9.1589683"><ele>398.0</ele><time>2026-05-01T18:09:55.28Z</time></trkpt><trkpt lat="45.7939967" lon="9.1589683"><ele>397.99999999999994</ele><time>2026-05-01T18:09:57.28Z</time></trkpt><trkpt lat="45.794065" lon="9.1589683"><ele>398.0</ele><time>2026-05-01T18:09:59.28Z</time></trkpt><trkpt lat="45.7941417" lon="9.158965"><ele>398.0</ele><time>2026-05-01T18:10:01.279Z</time></trkpt><trkpt lat="45.7942267" lon="9.15896"><ele>398.0</ele><time>2026-05-01T18:10:03.28Z</time></trkpt><trkpt lat="45.7942933" lon="9.1589517"><ele>398.0</ele><time>2026-05-01T18:10:05.28Z</time></trkpt><trkpt lat="45.7943717" lon="9.1589633"><ele>397.99999999999994</ele><time>2026-05-01T18:10:07.28Z</time></trkpt><trkpt lat="45.79444" lon="9.1589983"><ele>398.0</ele><time>2026-05-01T18:10:09.28Z</time></trkpt><trkpt lat="45.7944783" lon="9.15908"><ele>398.4285714285714</ele><time>2026-05-01T18:10:11.28Z</time></trkpt><trkpt lat="45.7945033" lon="9.1591833"><ele>398.85714285714283</ele><time>2026-05-01T18:10:13.28Z</time></trkpt><trkpt lat="45.7945033" lon="9.159285"><ele>399.2857142857143</ele><time>2026-05-01T18:10:15.28Z</time></trkpt><trkpt lat="45.7945033" lon="9.1593783"><ele>399.71428571428567</ele><time>2026-05-01T18:10:17.28Z</time></trkpt><trkpt lat="45.7945017" lon="9.1594733"><ele>400.14285714285717</ele><time>2026-05-01T18:10:19.28Z</time></trkpt><trkpt lat="45.794515" lon="9.15957"><ele>400.57142857142856</ele><time>2026-05-01T18:10:21.279Z</time></trkpt><trkpt lat="45.79455" lon="9.15968"><ele>401.0</ele><time>2026-05-01T18:10:24.28Z</time></trkpt><trkpt lat="45.794615" lon="9.1597033"><ele>400.99999999999994</ele><time>2026-05-01T18:10:27.28Z</time></trkpt><trkpt lat="45.7946833" lon="9.1596917"><ele>401.0</ele><time>2026-05-01T18:10:31.28Z</time></trkpt><trkpt lat="45.794735" lon="9.1595983"><ele>401.0</ele><time>2026-05-01T18:10:34.28Z</time></trkpt><trkpt lat="45.79474" lon="9.159505"><ele>401.0</ele><time>2026-05-01T18:10:36.28Z</time></trkpt><trkpt lat="45.7947483" lon="9.15939"><ele>400.99999999999994</ele><time>2026-05-01T18:10:38.28Z</time></trkpt><trkpt lat="45.7947567" lon="9.1592717"><ele>401.0</ele><time>2026-05-01T18:10:40.28Z</time></trkpt><trkpt lat="45.7947683" lon="9.1591383"><ele>401.0</ele><time>2026-05-01T18:10:42.279Z</time></trkpt><trkpt lat="45.7947817" lon="9.15905"><ele>401.0</ele><time>2026-05-01T18:10:44.28Z</time></trkpt><trkpt lat="45.79488" lon="9.1590583"><ele>401.0</ele><time>2026-05-01T18:10:47.28Z</time></trkpt><trkpt lat="45.7949733" lon="9.1591"><ele>401.0</ele><time>2026-05-01T18:10:49.28Z</time></trkpt><trkpt lat="45.7950717" lon="9.1591333"><ele>401.0</ele><time>2026-05-01T18:10:51.279Z</time></trkpt><trkpt lat="45.7951767" lon="9.159155"><ele>401.20000000000005</ele><time>2026-05-01T18:10:53.279Z</time></trkpt><trkpt lat="45.7952833" lon="9.1591683"><ele>401.40000000000003</ele><time>2026-05-01T18:10:55.28Z</time></trkpt><trkpt lat="45.79539" lon="9.159175"><ele>401.6</ele><time>2026-05-01T18:10:57.28Z</time></trkpt><trkpt lat="45.7954917" lon="9.1591933"><ele>401.8</ele><time>2026-05-01T18:10:59.28Z</time></trkpt><trkpt lat="45.7955833" lon="9.1592067"><ele>402.0</ele><time>2026-05-01T18:11:01.28Z</time></trkpt><trkpt lat="45.79568" lon="9.1592183"><ele>402.0</ele><time>2026-05-01T18:11:03.279Z</time></trkpt><trkpt lat="45.7957633" lon="9.159225"><ele>402.0</ele><time>2026-05-01T18:11:05.28Z</time></trkpt><trkpt lat="45.7958483" lon="9.1592367"><ele>402.0</ele><time>2026-05-01T18:11:07.279Z</time></trkpt><trkpt lat="45.7959367" lon="9.1592583"><ele>402.0</ele><time>2026-05-01T18:11:09.279Z</time></trkpt><trkpt lat="45.7960317" lon="9.159265"><ele>402.0</ele><time>2026-05-01T18:11:11.279Z</time></trkpt><trkpt lat="45.7961133" lon="9.159265"><ele>402.0</ele><time>2026-05-01T18:11:13.279Z</time></trkpt><trkpt lat="45.796195" lon="9.15927"><ele>402.3333333333333</ele><time>2026-05-01T18:11:15.279Z</time></trkpt><trkpt lat="45.7962883" lon="9.1592883"><ele>402.66666666666663</ele><time>2026-05-01T18:11:17.279Z</time></trkpt><trkpt lat="45.7963867" lon="9.15929"><ele>403.0</ele><time>2026-05-01T18:11:19.278Z</time></trkpt><trkpt lat="45.7964817" lon="9.1592867"><ele>403.3333333333333</ele><time>2026-05-01T18:11:21.279Z</time></trkpt><trkpt lat="45.796565" lon="9.1592983"><ele>403.66666666666663</ele><time>2026-05-01T18:11:23.279Z</time></trkpt><trkpt lat="45.7966417" lon="9.15931"><ele>404.0</ele><time>2026-05-01T18:11:25.279Z</time></trkpt><trkpt lat="45.7967267" lon="9.1593333"><ele>404.0</ele><time>2026-05-01T18:11:27.279Z</time></trkpt><trkpt lat="45.7968183" lon="9.159345"><ele>404.0</ele><time>2026-05-01T18:11:29.279Z</time></trkpt><trkpt lat="45.79693" lon="9.15936"><ele>404.0</ele><time>2026-05-01T18:11:31.279Z</time></trkpt><trkpt lat="45.7970467" lon="9.1593617"><ele>404.0</ele><time>2026-05-01T18:11:33.278Z</time></trkpt><trkpt lat="45.7971483" lon="9.1593733"><ele>404.0</ele><time>2026-05-01T18:11:35.279Z</time></trkpt><trkpt lat="45.7972383" lon="9.1593917"><ele>404.66666666666663</ele><time>2026-05-01T18:11:37.279Z</time></trkpt><trkpt lat="45.797315" lon="9.1593883"><ele>405.3333333333333</ele><time>2026-05-01T18:11:39.279Z</time></trkpt><trkpt lat="45.7973917" lon="9.1594233"><ele>406.0</ele><time>2026-05-01T18:11:42.279Z</time></trkpt><trkpt lat="45.797475" lon="9.15943"><ele>406.66666666666663</ele><time>2026-05-01T18:11:45.278Z</time></trkpt><trkpt lat="45.79757" lon="9.1594267"><ele>407.3333333333333</ele><time>2026-05-01T18:11:48.278Z</time></trkpt><trkpt lat="45.7976333" lon="9.1594267"><ele>408.0</ele><time>2026-05-01T18:11:50.279Z</time></trkpt><trkpt lat="45.7976983" lon="9.1594333"><ele>409.0</ele><time>2026-05-01T18:11:52.279Z</time></trkpt><trkpt lat="45.7977833" lon="9.1594433"><ele>410.0</ele><time>2026-05-01T18:11:55.279Z</time></trkpt><trkpt lat="45.79786" lon="9.1594483"><ele>411.0</ele><time>2026-05-01T18:11:57.279Z</time></trkpt><trkpt lat="45.797945" lon="9.1594517"><ele>412.0</ele><time>2026-05-01T18:11:59.279Z</time></trkpt><trkpt lat="45.79803" lon="9.1594483"><ele>413.0</ele><time>2026-05-01T18:12:01.279Z</time></trkpt><trkpt lat="45.7980983" lon="9.1594533"><ele>414.0</ele><time>2026-05-01T18:12:03.279Z</time></trkpt><trkpt lat="45.7981733" lon="9.1594733"><ele>414.00000000000006</ele><time>2026-05-01T18:12:06.279Z</time></trkpt><trkpt lat="45.79823" lon="9.1595183"><ele>414.0</ele><time>2026-05-01T18:12:08.279Z</time></trkpt><trkpt lat="45.7982833" lon="9.159605"><ele>414.0</ele><time>2026-05-01T18:12:11.279Z</time></trkpt><trkpt lat="45.7983067" lon="9.1596983"><ele>414.0</ele><time>2026-05-01T18:12:13.278Z</time></trkpt><trkpt lat="45.79834" lon="9.1597867"><ele>414.0</ele><time>2026-05-01T18:12:15.279Z</time></trkpt><trkpt lat="45.7984" lon="9.15984"><ele>414.00000000000006</ele><time>2026-05-01T18:12:17.278Z</time></trkpt><trkpt lat="45.7984683" lon="9.1598817"><ele>414.0</ele><time>2026-05-01T18:12:19.279Z</time></trkpt><trkpt lat="45.79855" lon="9.15994"><ele>439.0</ele><time>2026-05-01T18:12:22.279Z</time></trkpt><trkpt lat="45.798615" lon="9.1599883"><ele>439.0</ele><time>2026-05-01T18:12:24.279Z</time></trkpt><trkpt lat="45.7986867" lon="9.1600117"><ele>439.0</ele><time>2026-05-01T18:12:26.279Z</time></trkpt><trkpt lat="45.7987517" lon="9.159965"><ele>439.0</ele><time>2026-05-01T18:12:28.279Z</time></trkpt><trkpt lat="45.798815" lon="9.1599"><ele>439.0</ele><time>2026-05-01T18:12:30.279Z</time></trkpt><trkpt lat="45.79887" lon="9.15984"><ele>431.0</ele><time>2026-05-01T18:12:32.279Z</time></trkpt><trkpt lat="45.7989117" lon="9.1597533"><ele>431.0</ele><time>2026-05-01T18:12:35.279Z</time></trkpt></trkseg></trk></gpx>